sensor_id;sensor_type;location;lat;lon;timestamp;P1;durP1;ratioP1;P2;durP2;ratioP2
10418;SDS011;5256;48.728;9.140;2023-07-13T00:02:08;0.30;;;0.30;;
10418;SDS011;5256;48.728;9.140;2023-07-13T00:04:34;0.30;;;0.30;;
10418;SDS011;5256;48.728;9.140;2023-07-13T00:07:00;0.20;;;0.20;;
10418;SDS011;5256;48.728;9.140;2023-07-13T00:09:25;0.20;;;0.20;;
10418;SDS011;5256;48.728;9.140;2023-07-13T00:11:54;0.30;;;0.30;;
10418;SDS011;5256;48.728;9.140;2023-07-13T00:14:21;0.20;;;0.20;;
10418;SDS011;5256;48.728;9.140;2023-07-13T00:16:47;0.20;;;0.20;;
10418;SDS011;5256;48.728;9.140;2023-07-13T00:19:13;0.30;;;0.30;;
10418;SDS011;5256;48.728;9.140;2023-07-13T00:21:39;0.27;;;0.27;;
10418;SDS011;5256;48.728;9.140;2023-07-13T00:24:06;0.20;;;0.20;;
10418;SDS011;5256;48.728;9.140;2023-07-13T00:26:32;0.30;;;0.30;;
10418;SDS011;5256;48.728;9.140;2023-07-13T00:28:58;0.20;;;0.20;;
10418;SDS011;5256;48.728;9.140;2023-07-13T00:31:24;0.30;;;0.30;;
10418;SDS011;5256;48.728;9.140;2023-07-13T00:33:50;0.23;;;0.23;;
10418;SDS011;5256;48.728;9.140;2023-07-13T00:36:16;0.20;;;0.20;;
10418;SDS011;5256;48.728;9.140;2023-07-13T00:38:42;0.20;;;0.20;;
10418;SDS011;5256;48.728;9.140;2023-07-13T00:41:08;0.20;;;0.20;;
10418;SDS011;5256;48.728;9.140;2023-07-13T00:43:34;0.30;;;0.30;;
10418;SDS011;5256;48.728;9.140;2023-07-13T00:46:09;0.27;;;0.27;;
10418;SDS011;5256;48.728;9.140;2023-07-13T00:48:41;0.30;;;0.30;;
10418;SDS011;5256;48.728;9.140;2023-07-13T00:51:09;0.20;;;0.20;;
10418;SDS011;5256;48.728;9.140;2023-07-13T00:53:35;0.30;;;0.30;;
10418;SDS011;5256;48.728;9.140;2023-07-13T00:56:04;0.20;;;0.20;;
10418;SDS011;5256;48.728;9.140;2023-07-13T00:58:31;0.30;;;0.30;;
10418;SDS011;5256;48.728;9.140;2023-07-13T01:00:57;0.20;;;0.20;;
10418;SDS011;5256;48.728;9.140;2023-07-13T01:03:23;0.27;;;0.27;;
10418;SDS011;5256;48.728;9.140;2023-07-13T01:05:48;0.30;;;0.30;;
10418;SDS011;5256;48.728;9.140;2023-07-13T01:08:15;0.30;;;0.30;;
10418;SDS011;5256;48.728;9.140;2023-07-13T01:10:41;0.30;;;0.30;;
10418;SDS011;5256;48.728;9.140;2023-07-13T01:13:15;0.20;;;0.20;;
10418;SDS011;5256;48.728;9.140;2023-07-13T01:15:42;0.20;;;0.20;;
10418;SDS011;5256;48.728;9.140;2023-07-13T01:18:11;0.30;;;0.30;;
10418;SDS011;5256;48.728;9.140;2023-07-13T01:20:39;0.30;;;0.30;;
10418;SDS011;5256;48.728;9.140;2023-07-13T01:23:07;0.30;;;0.30;;
10418;SDS011;5256;48.728;9.140;2023-07-13T01:25:35;0.23;;;0.23;;
10418;SDS011;5256;48.728;9.140;2023-07-13T01:28:05;0.30;;;0.30;;
10418;SDS011;5256;48.728;9.140;2023-07-13T01:30:33;0.20;;;0.20;;
10418;SDS011;5256;48.728;9.140;2023-07-13T01:33:00;0.30;;;0.30;;
10418;SDS011;5256;48.728;9.140;2023-07-13T01:35:25;0.30;;;0.30;;
10418;SDS011;5256;48.728;9.140;2023-07-13T01:37:52;0.20;;;0.20;;
10418;SDS011;5256;48.728;9.140;2023-07-13T01:40:18;0.27;;;0.27;;
10418;SDS011;5256;48.728;9.140;2023-07-13T01:42:43;0.20;;;0.20;;
10418;SDS011;5256;48.728;9.140;2023-07-13T01:45:09;0.30;;;0.30;;
10418;SDS011;5256;48.728;9.140;2023-07-13T01:47:35;0.30;;;0.30;;
10418;SDS011;5256;48.728;9.140;2023-07-13T01:50:00;0.23;;;0.23;;
10418;SDS011;5256;48.728;9.140;2023-07-13T01:52:26;0.23;;;0.23;;
10418;SDS011;5256;48.728;9.140;2023-07-13T01:54:51;0.30;;;0.30;;
10418;SDS011;5256;48.728;9.140;2023-07-13T01:57:17;0.20;;;0.20;;
10418;SDS011;5256;48.728;9.140;2023-07-13T01:59:42;0.30;;;0.30;;
10418;SDS011;5256;48.728;9.140;2023-07-13T02:02:08;0.20;;;0.20;;
10418;SDS011;5256;48.728;9.140;2023-07-13T02:04:33;0.30;;;0.30;;
10418;SDS011;5256;48.728;9.140;2023-07-13T02:06:59;0.30;;;0.30;;
10418;SDS011;5256;48.728;9.140;2023-07-13T02:09:25;0.20;;;0.20;;
10418;SDS011;5256;48.728;9.140;2023-07-13T02:11:50;0.20;;;0.20;;
10418;SDS011;5256;48.728;9.140;2023-07-13T02:14:16;0.30;;;0.30;;
10418;SDS011;5256;48.728;9.140;2023-07-13T02:16:42;0.20;;;0.20;;
10418;SDS011;5256;48.728;9.140;2023-07-13T02:19:08;0.30;;;0.30;;
10418;SDS011;5256;48.728;9.140;2023-07-13T02:21:33;0.20;;;0.20;;
10418;SDS011;5256;48.728;9.140;2023-07-13T02:23:59;0.30;;;0.30;;
10418;SDS011;5256;48.728;9.140;2023-07-13T02:26:25;0.30;;;0.30;;
10418;SDS011;5256;48.728;9.140;2023-07-13T02:28:52;0.20;;;0.20;;
10418;SDS011;5256;48.728;9.140;2023-07-13T02:31:17;0.30;;;0.30;;
10418;SDS011;5256;48.728;9.140;2023-07-13T02:33:43;0.30;;;0.30;;
10418;SDS011;5256;48.728;9.140;2023-07-13T02:36:09;0.30;;;0.30;;
10418;SDS011;5256;48.728;9.140;2023-07-13T02:38:35;0.30;;;0.30;;
10418;SDS011;5256;48.728;9.140;2023-07-13T02:41:02;0.20;;;0.20;;
10418;SDS011;5256;48.728;9.140;2023-07-13T02:43:31;0.30;;;0.30;;
10418;SDS011;5256;48.728;9.140;2023-07-13T02:45:58;0.30;;;0.30;;
10418;SDS011;5256;48.728;9.140;2023-07-13T02:48:29;0.30;;;0.30;;
10418;SDS011;5256;48.728;9.140;2023-07-13T02:50:54;0.30;;;0.30;;
10418;SDS011;5256;48.728;9.140;2023-07-13T02:53:20;0.30;;;0.30;;
10418;SDS011;5256;48.728;9.140;2023-07-13T02:55:46;0.30;;;0.30;;
10418;SDS011;5256;48.728;9.140;2023-07-13T02:58:12;0.40;;;0.40;;
10418;SDS011;5256;48.728;9.140;2023-07-13T03:00:42;0.30;;;0.30;;
10418;SDS011;5256;48.728;9.140;2023-07-13T03:03:08;0.30;;;0.30;;
10418;SDS011;5256;48.728;9.140;2023-07-13T03:05:36;0.20;;;0.20;;
10418;SDS011;5256;48.728;9.140;2023-07-13T03:08:03;0.30;;;0.30;;
10418;SDS011;5256;48.728;9.140;2023-07-13T03:10:29;0.20;;;0.20;;
10418;SDS011;5256;48.728;9.140;2023-07-13T03:12:54;0.30;;;0.30;;
10418;SDS011;5256;48.728;9.140;2023-07-13T03:15:20;0.20;;;0.20;;
10418;SDS011;5256;48.728;9.140;2023-07-13T03:17:45;0.30;;;0.30;;
10418;SDS011;5256;48.728;9.140;2023-07-13T03:20:11;0.20;;;0.20;;
10418;SDS011;5256;48.728;9.140;2023-07-13T03:22:37;0.37;;;0.37;;
10418;SDS011;5256;48.728;9.140;2023-07-13T03:25:02;0.23;;;0.23;;
10418;SDS011;5256;48.728;9.140;2023-07-13T03:27:28;0.30;;;0.30;;
10418;SDS011;5256;48.728;9.140;2023-07-13T03:29:54;0.20;;;0.20;;
10418;SDS011;5256;48.728;9.140;2023-07-13T03:32:19;0.23;;;0.23;;
10418;SDS011;5256;48.728;9.140;2023-07-13T03:34:45;0.30;;;0.30;;
10418;SDS011;5256;48.728;9.140;2023-07-13T03:37:10;0.33;;;0.33;;
10418;SDS011;5256;48.728;9.140;2023-07-13T03:39:36;0.20;;;0.20;;
10418;SDS011;5256;48.728;9.140;2023-07-13T03:42:01;0.30;;;0.30;;
10418;SDS011;5256;48.728;9.140;2023-07-13T03:44:27;0.20;;;0.20;;
10418;SDS011;5256;48.728;9.140;2023-07-13T03:46:52;0.20;;;0.20;;
10418;SDS011;5256;48.728;9.140;2023-07-13T03:49:18;0.30;;;0.30;;
10418;SDS011;5256;48.728;9.140;2023-07-13T03:51:43;0.30;;;0.30;;
10418;SDS011;5256;48.728;9.140;2023-07-13T03:54:09;0.30;;;0.30;;
10418;SDS011;5256;48.728;9.140;2023-07-13T03:56:34;0.33;;;0.33;;
10418;SDS011;5256;48.728;9.140;2023-07-13T03:59:00;0.30;;;0.30;;
10418;SDS011;5256;48.728;9.140;2023-07-13T04:01:27;0.43;;;0.43;;
10418;SDS011;5256;48.728;9.140;2023-07-13T04:03:53;0.30;;;0.30;;
10418;SDS011;5256;48.728;9.140;2023-07-13T04:06:28;0.20;;;0.20;;
10418;SDS011;5256;48.728;9.140;2023-07-13T04:08:56;0.30;;;0.30;;
10418;SDS011;5256;48.728;9.140;2023-07-13T04:11:24;0.23;;;0.23;;
10418;SDS011;5256;48.728;9.140;2023-07-13T04:13:51;0.27;;;0.27;;
10418;SDS011;5256;48.728;9.140;2023-07-13T04:16:17;0.20;;;0.20;;
10418;SDS011;5256;48.728;9.140;2023-07-13T04:18:44;0.30;;;0.30;;
10418;SDS011;5256;48.728;9.140;2023-07-13T04:21:10;0.30;;;0.30;;
10418;SDS011;5256;48.728;9.140;2023-07-13T04:23:36;0.23;;;0.23;;
10418;SDS011;5256;48.728;9.140;2023-07-13T04:26:02;0.23;;;0.23;;
10418;SDS011;5256;48.728;9.140;2023-07-13T04:28:27;0.30;;;0.30;;
10418;SDS011;5256;48.728;9.140;2023-07-13T04:30:53;0.30;;;0.30;;
10418;SDS011;5256;48.728;9.140;2023-07-13T04:33:19;0.30;;;0.30;;
10418;SDS011;5256;48.728;9.140;2023-07-13T04:35:47;0.33;;;0.33;;
10418;SDS011;5256;48.728;9.140;2023-07-13T04:38:14;0.30;;;0.30;;
10418;SDS011;5256;48.728;9.140;2023-07-13T04:40:42;0.30;;;0.30;;
10418;SDS011;5256;48.728;9.140;2023-07-13T04:43:09;0.37;;;0.37;;
10418;SDS011;5256;48.728;9.140;2023-07-13T04:45:35;0.20;;;0.20;;
10418;SDS011;5256;48.728;9.140;2023-07-13T04:48:01;0.30;;;0.30;;
10418;SDS011;5256;48.728;9.140;2023-07-13T04:50:26;0.20;;;0.20;;
10418;SDS011;5256;48.728;9.140;2023-07-13T04:52:52;0.20;;;0.20;;
10418;SDS011;5256;48.728;9.140;2023-07-13T04:55:18;0.20;;;0.20;;
10418;SDS011;5256;48.728;9.140;2023-07-13T04:57:44;0.20;;;0.20;;
10418;SDS011;5256;48.728;9.140;2023-07-13T05:00:11;0.30;;;0.30;;
10418;SDS011;5256;48.728;9.140;2023-07-13T05:02:38;0.30;;;0.30;;
10418;SDS011;5256;48.728;9.140;2023-07-13T05:05:04;0.20;;;0.20;;
10418;SDS011;5256;48.728;9.140;2023-07-13T05:07:30;0.23;;;0.23;;
10418;SDS011;5256;48.728;9.140;2023-07-13T05:09:57;0.23;;;0.23;;
10418;SDS011;5256;48.728;9.140;2023-07-13T05:12:24;0.27;;;0.27;;
10418;SDS011;5256;48.728;9.140;2023-07-13T05:14:50;0.30;;;0.30;;
10418;SDS011;5256;48.728;9.140;2023-07-13T05:17:15;0.30;;;0.30;;
10418;SDS011;5256;48.728;9.140;2023-07-13T05:19:41;0.20;;;0.20;;
10418;SDS011;5256;48.728;9.140;2023-07-13T05:22:06;0.30;;;0.30;;
10418;SDS011;5256;48.728;9.140;2023-07-13T05:24:32;0.20;;;0.20;;
10418;SDS011;5256;48.728;9.140;2023-07-13T05:26:58;0.20;;;0.20;;
10418;SDS011;5256;48.728;9.140;2023-07-13T05:29:24;0.20;;;0.20;;
10418;SDS011;5256;48.728;9.140;2023-07-13T05:31:50;0.37;;;0.37;;
10418;SDS011;5256;48.728;9.140;2023-07-13T05:34:15;0.30;;;0.30;;
10418;SDS011;5256;48.728;9.140;2023-07-13T05:36:41;0.23;;;0.23;;
10418;SDS011;5256;48.728;9.140;2023-07-13T05:39:07;0.30;;;0.30;;
10418;SDS011;5256;48.728;9.140;2023-07-13T05:41:32;0.30;;;0.30;;
10418;SDS011;5256;48.728;9.140;2023-07-13T05:43:58;0.40;;;0.40;;
10418;SDS011;5256;48.728;9.140;2023-07-13T05:46:24;0.20;;;0.20;;
10418;SDS011;5256;48.728;9.140;2023-07-13T05:48:49;0.30;;;0.30;;
10418;SDS011;5256;48.728;9.140;2023-07-13T05:51:15;0.30;;;0.30;;
10418;SDS011;5256;48.728;9.140;2023-07-13T05:53:40;0.30;;;0.30;;
10418;SDS011;5256;48.728;9.140;2023-07-13T05:56:06;0.30;;;0.30;;
10418;SDS011;5256;48.728;9.140;2023-07-13T05:58:31;0.30;;;0.30;;
10418;SDS011;5256;48.728;9.140;2023-07-13T06:01:08;0.20;;;0.20;;
10418;SDS011;5256;48.728;9.140;2023-07-13T06:03:35;0.20;;;0.20;;
10418;SDS011;5256;48.728;9.140;2023-07-13T06:06:03;0.30;;;0.30;;
10418;SDS011;5256;48.728;9.140;2023-07-13T06:08:29;0.30;;;0.30;;
10418;SDS011;5256;48.728;9.140;2023-07-13T06:10:55;0.20;;;0.20;;
10418;SDS011;5256;48.728;9.140;2023-07-13T06:13:27;0.20;;;0.20;;
10418;SDS011;5256;48.728;9.140;2023-07-13T06:15:52;0.30;;;0.30;;
10418;SDS011;5256;48.728;9.140;2023-07-13T06:18:18;0.20;;;0.20;;
10418;SDS011;5256;48.728;9.140;2023-07-13T06:20:43;0.23;;;0.23;;
10418;SDS011;5256;48.728;9.140;2023-07-13T06:23:09;0.10;;;0.10;;
10418;SDS011;5256;48.728;9.140;2023-07-13T06:25:34;0.17;;;0.17;;
10418;SDS011;5256;48.728;9.140;2023-07-13T06:28:00;0.20;;;0.20;;
10418;SDS011;5256;48.728;9.140;2023-07-13T06:30:26;0.10;;;0.10;;
10418;SDS011;5256;48.728;9.140;2023-07-13T06:32:52;0.10;;;0.10;;
10418;SDS011;5256;48.728;9.140;2023-07-13T06:35:17;0.20;;;0.20;;
10418;SDS011;5256;48.728;9.140;2023-07-13T06:37:43;0.10;;;0.10;;
10418;SDS011;5256;48.728;9.140;2023-07-13T06:40:09;0.10;;;0.10;;
10418;SDS011;5256;48.728;9.140;2023-07-13T06:42:34;0.10;;;0.10;;
10418;SDS011;5256;48.728;9.140;2023-07-13T06:45:00;0.10;;;0.10;;
10418;SDS011;5256;48.728;9.140;2023-07-13T06:47:26;0.10;;;0.10;;
10418;SDS011;5256;48.728;9.140;2023-07-13T06:49:51;0.10;;;0.10;;
10418;SDS011;5256;48.728;9.140;2023-07-13T06:52:17;0.10;;;0.10;;
10418;SDS011;5256;48.728;9.140;2023-07-13T06:54:43;0.17;;;0.17;;
10418;SDS011;5256;48.728;9.140;2023-07-13T06:57:08;0.10;;;0.10;;
10418;SDS011;5256;48.728;9.140;2023-07-13T06:59:34;0.10;;;0.10;;
10418;SDS011;5256;48.728;9.140;2023-07-13T07:01:59;0.20;;;0.20;;
10418;SDS011;5256;48.728;9.140;2023-07-13T07:04:25;0.10;;;0.10;;
10418;SDS011;5256;48.728;9.140;2023-07-13T07:06:50;0.10;;;0.10;;
10418;SDS011;5256;48.728;9.140;2023-07-13T07:09:17;0.10;;;0.10;;
10418;SDS011;5256;48.728;9.140;2023-07-13T07:11:42;0.10;;;0.10;;
10418;SDS011;5256;48.728;9.140;2023-07-13T07:14:08;0.10;;;0.10;;
10418;SDS011;5256;48.728;9.140;2023-07-13T07:16:33;0.20;;;0.20;;
10418;SDS011;5256;48.728;9.140;2023-07-13T07:18:59;0.10;;;0.10;;
10418;SDS011;5256;48.728;9.140;2023-07-13T07:21:25;0.20;;;0.20;;
10418;SDS011;5256;48.728;9.140;2023-07-13T07:23:51;0.10;;;0.10;;
10418;SDS011;5256;48.728;9.140;2023-07-13T07:26:17;0.10;;;0.10;;
10418;SDS011;5256;48.728;9.140;2023-07-13T07:28:42;0.10;;;0.10;;
10418;SDS011;5256;48.728;9.140;2023-07-13T07:31:08;0.10;;;0.10;;
10418;SDS011;5256;48.728;9.140;2023-07-13T07:33:34;0.20;;;0.20;;
10418;SDS011;5256;48.728;9.140;2023-07-13T07:35:59;0.10;;;0.10;;
10418;SDS011;5256;48.728;9.140;2023-07-13T07:38:25;0.10;;;0.10;;
10418;SDS011;5256;48.728;9.140;2023-07-13T07:40:51;0.10;;;0.10;;
10418;SDS011;5256;48.728;9.140;2023-07-13T07:43:17;0.20;;;0.20;;
10418;SDS011;5256;48.728;9.140;2023-07-13T07:45:44;0.10;;;0.10;;
10418;SDS011;5256;48.728;9.140;2023-07-13T07:48:10;0.10;;;0.10;;
10418;SDS011;5256;48.728;9.140;2023-07-13T07:50:37;0.10;;;0.10;;
10418;SDS011;5256;48.728;9.140;2023-07-13T07:53:03;0.20;;;0.20;;
10418;SDS011;5256;48.728;9.140;2023-07-13T07:55:32;0.10;;;0.10;;
10418;SDS011;5256;48.728;9.140;2023-07-13T07:58:00;0.20;;;0.20;;
10418;SDS011;5256;48.728;9.140;2023-07-13T08:00:25;0.10;;;0.10;;
10418;SDS011;5256;48.728;9.140;2023-07-13T08:02:51;0.10;;;0.10;;
10418;SDS011;5256;48.728;9.140;2023-07-13T08:05:17;0.10;;;0.10;;
10418;SDS011;5256;48.728;9.140;2023-07-13T08:07:43;0.10;;;0.10;;
10418;SDS011;5256;48.728;9.140;2023-07-13T08:10:09;0.10;;;0.10;;
10418;SDS011;5256;48.728;9.140;2023-07-13T08:12:35;0.10;;;0.10;;
10418;SDS011;5256;48.728;9.140;2023-07-13T08:15:04;0.10;;;0.10;;
10418;SDS011;5256;48.728;9.140;2023-07-13T08:17:31;0.10;;;0.10;;
10418;SDS011;5256;48.728;9.140;2023-07-13T08:19:57;0.10;;;0.10;;
10418;SDS011;5256;48.728;9.140;2023-07-13T08:22:22;0.20;;;0.20;;
10418;SDS011;5256;48.728;9.140;2023-07-13T08:24:48;0.10;;;0.10;;
10418;SDS011;5256;48.728;9.140;2023-07-13T08:27:20;0.10;;;0.10;;
10418;SDS011;5256;48.728;9.140;2023-07-13T08:29:47;0.10;;;0.10;;
10418;SDS011;5256;48.728;9.140;2023-07-13T08:32:13;0.20;;;0.20;;
10418;SDS011;5256;48.728;9.140;2023-07-13T08:34:38;0.10;;;0.10;;
10418;SDS011;5256;48.728;9.140;2023-07-13T08:37:04;0.20;;;0.20;;
10418;SDS011;5256;48.728;9.140;2023-07-13T08:39:31;0.10;;;0.10;;
10418;SDS011;5256;48.728;9.140;2023-07-13T08:41:58;0.13;;;0.13;;
10418;SDS011;5256;48.728;9.140;2023-07-13T08:44:36;0.20;;;0.20;;
10418;SDS011;5256;48.728;9.140;2023-07-13T08:47:18;0.10;;;0.10;;
10418;SDS011;5256;48.728;9.140;2023-07-13T08:49:47;0.10;;;0.10;;
10418;SDS011;5256;48.728;9.140;2023-07-13T08:54:47;0.10;;;0.10;;
10418;SDS011;5256;48.728;9.140;2023-07-13T08:57:17;0.10;;;0.10;;
10418;SDS011;5256;48.728;9.140;2023-07-13T08:59:46;0.10;;;0.10;;
10418;SDS011;5256;48.728;9.140;2023-07-13T09:02:20;0.20;;;0.20;;
10418;SDS011;5256;48.728;9.140;2023-07-13T09:11:00;0.20;;;0.20;;
10418;SDS011;5256;48.728;9.140;2023-07-13T09:16:18;0.10;;;0.10;;
10418;SDS011;5256;48.728;9.140;2023-07-13T09:18:45;0.10;;;0.10;;
10418;SDS011;5256;48.728;9.140;2023-07-13T09:21:15;0.10;;;0.10;;
10418;SDS011;5256;48.728;9.140;2023-07-13T09:23:45;0.10;;;0.10;;
10418;SDS011;5256;48.728;9.140;2023-07-13T09:26:22;0.10;;;0.10;;
10418;SDS011;5256;48.728;9.140;2023-07-13T09:28:51;0.10;;;0.10;;
10418;SDS011;5256;48.728;9.140;2023-07-13T09:31:47;0.10;;;0.10;;
10418;SDS011;5256;48.728;9.140;2023-07-13T09:34:18;0.10;;;0.10;;
10418;SDS011;5256;48.728;9.140;2023-07-13T09:36:43;0.20;;;0.20;;
10418;SDS011;5256;48.728;9.140;2023-07-13T09:39:14;0.10;;;0.10;;
10418;SDS011;5256;48.728;9.140;2023-07-13T09:42:33;0.20;;;0.20;;
10418;SDS011;5256;48.728;9.140;2023-07-13T09:44:54;0.10;;;0.10;;
10418;SDS011;5256;48.728;9.140;2023-07-13T09:47:26;0.10;;;0.10;;
10418;SDS011;5256;48.728;9.140;2023-07-13T09:50:01;0.10;;;0.10;;
10418;SDS011;5256;48.728;9.140;2023-07-13T09:52:50;0.20;;;0.20;;
10418;SDS011;5256;48.728;9.140;2023-07-13T09:57:48;0.10;;;0.10;;
10418;SDS011;5256;48.728;9.140;2023-07-13T10:00:25;0.10;;;0.10;;
10418;SDS011;5256;48.728;9.140;2023-07-13T10:02:59;0.10;;;0.10;;
10418;SDS011;5256;48.728;9.140;2023-07-13T10:05:28;0.10;;;0.10;;
10418;SDS011;5256;48.728;9.140;2023-07-13T10:08:03;0.10;;;0.10;;
10418;SDS011;5256;48.728;9.140;2023-07-13T10:10:28;0.10;;;0.10;;
10418;SDS011;5256;48.728;9.140;2023-07-13T10:12:55;0.10;;;0.10;;
10418;SDS011;5256;48.728;9.140;2023-07-13T10:15:24;0.10;;;0.10;;
10418;SDS011;5256;48.728;9.140;2023-07-13T10:17:51;0.10;;;0.10;;
10418;SDS011;5256;48.728;9.140;2023-07-13T10:20:19;0.10;;;0.10;;
10418;SDS011;5256;48.728;9.140;2023-07-13T10:22:50;0.10;;;0.10;;
10418;SDS011;5256;48.728;9.140;2023-07-13T10:25:25;0.10;;;0.10;;
10418;SDS011;5256;48.728;9.140;2023-07-13T10:27:53;0.10;;;0.10;;
10418;SDS011;5256;48.728;9.140;2023-07-13T10:30:25;0.10;;;0.10;;
10418;SDS011;5256;48.728;9.140;2023-07-13T10:32:57;0.10;;;0.10;;
10418;SDS011;5256;48.728;9.140;2023-07-13T10:35:25;0.10;;;0.10;;
10418;SDS011;5256;48.728;9.140;2023-07-13T10:37:55;0.10;;;0.10;;
10418;SDS011;5256;48.728;9.140;2023-07-13T10:40:38;0.10;;;0.10;;
10418;SDS011;5256;48.728;9.140;2023-07-13T10:43:06;0.10;;;0.10;;
10418;SDS011;5256;48.728;9.140;2023-07-13T10:45:47;0.10;;;0.10;;
10418;SDS011;5256;48.728;9.140;2023-07-13T10:48:15;0.10;;;0.10;;
10418;SDS011;5256;48.728;9.140;2023-07-13T10:50:44;0.10;;;0.10;;
10418;SDS011;5256;48.728;9.140;2023-07-13T10:53:31;0.10;;;0.10;;
10418;SDS011;5256;48.728;9.140;2023-07-13T10:58:35;0.10;;;0.10;;
10418;SDS011;5256;48.728;9.140;2023-07-13T11:03:31;0.10;;;0.10;;
10418;SDS011;5256;48.728;9.140;2023-07-13T11:08:58;0.10;;;0.10;;
10418;SDS011;5256;48.728;9.140;2023-07-13T11:14:02;0.10;;;0.10;;
10418;SDS011;5256;48.728;9.140;2023-07-13T11:16:47;0.10;;;0.10;;
10418;SDS011;5256;48.728;9.140;2023-07-13T11:27:41;0.10;;;0.10;;
10418;SDS011;5256;48.728;9.140;2023-07-13T11:30:18;0.20;;;0.20;;
10418;SDS011;5256;48.728;9.140;2023-07-13T11:38:28;0.10;;;0.10;;
10418;SDS011;5256;48.728;9.140;2023-07-13T11:41:05;0.10;;;0.10;;
10418;SDS011;5256;48.728;9.140;2023-07-13T11:43:42;0.20;;;0.20;;
10418;SDS011;5256;48.728;9.140;2023-07-13T11:46:21;0.10;;;0.10;;
10418;SDS011;5256;48.728;9.140;2023-07-13T11:48:48;0.13;;;0.13;;
10418;SDS011;5256;48.728;9.140;2023-07-13T11:51:19;0.20;;;0.20;;
10418;SDS011;5256;48.728;9.140;2023-07-13T11:53:50;0.10;;;0.10;;
10418;SDS011;5256;48.728;9.140;2023-07-13T11:56:17;0.10;;;0.10;;
10418;SDS011;5256;48.728;9.140;2023-07-13T11:58:43;0.10;;;0.10;;
10418;SDS011;5256;48.728;9.140;2023-07-13T12:01:15;0.10;;;0.10;;
10418;SDS011;5256;48.728;9.140;2023-07-13T12:03:45;0.10;;;0.10;;
10418;SDS011;5256;48.728;9.140;2023-07-13T12:06:22;0.10;;;0.10;;
10418;SDS011;5256;48.728;9.140;2023-07-13T12:08:57;0.13;;;0.13;;
10418;SDS011;5256;48.728;9.140;2023-07-13T12:11:29;0.20;;;0.20;;
10418;SDS011;5256;48.728;9.140;2023-07-13T12:13:55;0.10;;;0.10;;
10418;SDS011;5256;48.728;9.140;2023-07-13T12:16:23;0.20;;;0.20;;
10418;SDS011;5256;48.728;9.140;2023-07-13T12:18:55;0.20;;;0.20;;
10418;SDS011;5256;48.728;9.140;2023-07-13T12:21:24;0.10;;;0.10;;
10418;SDS011;5256;48.728;9.140;2023-07-13T12:24:03;0.10;;;0.10;;
10418;SDS011;5256;48.728;9.140;2023-07-13T12:26:30;0.10;;;0.10;;
10418;SDS011;5256;48.728;9.140;2023-07-13T12:28:58;0.20;;;0.20;;
10418;SDS011;5256;48.728;9.140;2023-07-13T12:33:56;0.10;;;0.10;;
10418;SDS011;5256;48.728;9.140;2023-07-13T12:36:34;0.17;;;0.17;;
10418;SDS011;5256;48.728;9.140;2023-07-13T12:39:11;0.10;;;0.10;;
10418;SDS011;5256;48.728;9.140;2023-07-13T12:41:40;0.13;;;0.13;;
10418;SDS011;5256;48.728;9.140;2023-07-13T12:44:10;0.10;;;0.10;;
10418;SDS011;5256;48.728;9.140;2023-07-13T12:46:37;0.20;;;0.20;;
10418;SDS011;5256;48.728;9.140;2023-07-13T12:49:05;0.20;;;0.20;;
10418;SDS011;5256;48.728;9.140;2023-07-13T12:51:32;0.20;;;0.20;;
10418;SDS011;5256;48.728;9.140;2023-07-13T12:53:59;0.13;;;0.13;;
10418;SDS011;5256;48.728;9.140;2023-07-13T12:56:37;0.10;;;0.10;;
10418;SDS011;5256;48.728;9.140;2023-07-13T12:59:03;0.10;;;0.10;;
10418;SDS011;5256;48.728;9.140;2023-07-13T13:01:32;0.20;;;0.20;;
10418;SDS011;5256;48.728;9.140;2023-07-13T13:04:02;0.27;;;0.27;;
10418;SDS011;5256;48.728;9.140;2023-07-13T13:06:32;0.10;;;0.10;;
10418;SDS011;5256;48.728;9.140;2023-07-13T13:09:00;0.10;;;0.10;;
10418;SDS011;5256;48.728;9.140;2023-07-13T13:11:28;0.20;;;0.20;;
10418;SDS011;5256;48.728;9.140;2023-07-13T13:13:55;0.10;;;0.10;;
10418;SDS011;5256;48.728;9.140;2023-07-13T13:16:29;0.10;;;0.10;;
10418;SDS011;5256;48.728;9.140;2023-07-13T13:18:57;0.20;;;0.20;;
10418;SDS011;5256;48.728;9.140;2023-07-13T13:21:27;0.10;;;0.10;;
10418;SDS011;5256;48.728;9.140;2023-07-13T13:23:53;0.10;;;0.10;;
10418;SDS011;5256;48.728;9.140;2023-07-13T13:26:19;0.10;;;0.10;;
10418;SDS011;5256;48.728;9.140;2023-07-13T13:28:47;0.10;;;0.10;;
10418;SDS011;5256;48.728;9.140;2023-07-13T13:31:13;0.20;;;0.20;;
10418;SDS011;5256;48.728;9.140;2023-07-13T13:33:40;0.10;;;0.10;;
10418;SDS011;5256;48.728;9.140;2023-07-13T13:38:44;0.10;;;0.10;;
10418;SDS011;5256;48.728;9.140;2023-07-13T13:41:11;0.10;;;0.10;;
10418;SDS011;5256;48.728;9.140;2023-07-13T13:43:38;0.10;;;0.10;;
10418;SDS011;5256;48.728;9.140;2023-07-13T13:46:08;0.17;;;0.17;;
10418;SDS011;5256;48.728;9.140;2023-07-13T13:48:38;0.10;;;0.10;;
10418;SDS011;5256;48.728;9.140;2023-07-13T13:51:15;0.10;;;0.10;;
10418;SDS011;5256;48.728;9.140;2023-07-13T13:53:43;0.10;;;0.10;;
10418;SDS011;5256;48.728;9.140;2023-07-13T13:56:10;0.20;;;0.20;;
10418;SDS011;5256;48.728;9.140;2023-07-13T13:58:36;0.10;;;0.10;;
10418;SDS011;5256;48.728;9.140;2023-07-13T14:01:02;0.10;;;0.10;;
10418;SDS011;5256;48.728;9.140;2023-07-13T14:03:27;0.10;;;0.10;;
10418;SDS011;5256;48.728;9.140;2023-07-13T14:05:53;0.13;;;0.13;;
10418;SDS011;5256;48.728;9.140;2023-07-13T14:08:22;0.20;;;0.20;;
10418;SDS011;5256;48.728;9.140;2023-07-13T14:10:48;0.10;;;0.10;;
10418;SDS011;5256;48.728;9.140;2023-07-13T14:13:18;0.10;;;0.10;;
10418;SDS011;5256;48.728;9.140;2023-07-13T14:15:48;0.10;;;0.10;;
10418;SDS011;5256;48.728;9.140;2023-07-13T14:18:14;0.10;;;0.10;;
10418;SDS011;5256;48.728;9.140;2023-07-13T14:20:46;0.10;;;0.10;;
10418;SDS011;5256;48.728;9.140;2023-07-13T14:23:13;0.10;;;0.10;;
10418;SDS011;5256;48.728;9.140;2023-07-13T14:25:40;0.10;;;0.10;;
10418;SDS011;5256;48.728;9.140;2023-07-13T14:28:14;0.10;;;0.10;;
10418;SDS011;5256;48.728;9.140;2023-07-13T14:30:46;0.10;;;0.10;;
10418;SDS011;5256;48.728;9.140;2023-07-13T14:33:12;0.10;;;0.10;;
10418;SDS011;5256;48.728;9.140;2023-07-13T14:35:38;0.10;;;0.10;;
10418;SDS011;5256;48.728;9.140;2023-07-13T14:38:03;0.10;;;0.10;;
10418;SDS011;5256;48.728;9.140;2023-07-13T14:40:30;0.10;;;0.10;;
10418;SDS011;5256;48.728;9.140;2023-07-13T14:42:56;0.10;;;0.10;;
10418;SDS011;5256;48.728;9.140;2023-07-13T14:45:23;0.17;;;0.17;;
10418;SDS011;5256;48.728;9.140;2023-07-13T14:47:50;0.10;;;0.10;;
10418;SDS011;5256;48.728;9.140;2023-07-13T14:50:17;0.10;;;0.10;;
10418;SDS011;5256;48.728;9.140;2023-07-13T14:52:45;0.10;;;0.10;;
10418;SDS011;5256;48.728;9.140;2023-07-13T14:55:13;0.10;;;0.10;;
10418;SDS011;5256;48.728;9.140;2023-07-13T14:57:40;0.10;;;0.10;;
10418;SDS011;5256;48.728;9.140;2023-07-13T15:02:40;0.10;;;0.10;;
10418;SDS011;5256;48.728;9.140;2023-07-13T15:05:14;0.10;;;0.10;;
10418;SDS011;5256;48.728;9.140;2023-07-13T15:07:45;0.07;;;0.07;;
10418;SDS011;5256;48.728;9.140;2023-07-13T15:10:19;0.10;;;0.10;;
10418;SDS011;5256;48.728;9.140;2023-07-13T15:12:45;0.10;;;0.10;;
10418;SDS011;5256;48.728;9.140;2023-07-13T15:15:11;0.00;;;0.00;;
10418;SDS011;5256;48.728;9.140;2023-07-13T15:17:39;0.10;;;0.10;;
10418;SDS011;5256;48.728;9.140;2023-07-13T15:22:38;0.10;;;0.10;;
10418;SDS011;5256;48.728;9.140;2023-07-13T15:25:04;0.10;;;0.10;;
10418;SDS011;5256;48.728;9.140;2023-07-13T15:27:39;0.10;;;0.10;;
10418;SDS011;5256;48.728;9.140;2023-07-13T15:30:04;0.10;;;0.10;;
10418;SDS011;5256;48.728;9.140;2023-07-13T15:32:30;0.13;;;0.13;;
10418;SDS011;5256;48.728;9.140;2023-07-13T15:34:56;0.10;;;0.10;;
10418;SDS011;5256;48.728;9.140;2023-07-13T15:37:21;0.10;;;0.10;;
10418;SDS011;5256;48.728;9.140;2023-07-13T15:39:47;0.13;;;0.13;;
10418;SDS011;5256;48.728;9.140;2023-07-13T15:42:16;0.10;;;0.10;;
10418;SDS011;5256;48.728;9.140;2023-07-13T15:44:43;0.10;;;0.10;;
10418;SDS011;5256;48.728;9.140;2023-07-13T15:47:13;0.20;;;0.10;;
10418;SDS011;5256;48.728;9.140;2023-07-13T15:49:40;0.10;;;0.10;;
10418;SDS011;5256;48.728;9.140;2023-07-13T15:52:23;0.10;;;0.10;;
10418;SDS011;5256;48.728;9.140;2023-07-13T15:54:49;0.10;;;0.10;;